AirNav   Air Wisconsin Up To $57,000 Bonus
 
 839 users online  

TX05 Bud Dryden Airport
Austin, Texas, USA

GOING TO AUSTIN?


FAA INFORMATION EFFECTIVE 26 MARCH 2020

Location

FAA Identifier: TX05
Lat/Long: 30-15-37.7500N 097-37-31.0000W
30-15.629167N 097-37.516667W
30.2604861,-97.6252778
(estimated)
Elevation: 500 ft. / 152 m (estimated)
Variation: 06E (2000)
From city: 6 miles SE of AUSTIN, TX
Time zone: UTC -5 (UTC -6 during Standard Time)
Zip code: 78725

Airport Operations

Airport use: Private use. Permission required prior to landing
Activation date: 11/2000
Control tower: no
ARTCC: HOUSTON CENTER
FSS: SAN ANGELO FLIGHT SERVICE STATION
Attendance: UNATNDD
Wind indicator: yes
Segmented circle: no

Airport Communications

WX ASOS at AUS (5 nm SW): PHONE 512-369-7881
WX AWOS-3 at EDC (9 nm N): 118.825 (512-616-2967)

Nearby radio navigation aids

VOR radial/distance  VOR name  Freq  Var
CWKr209/8.6CENTEX VORTAC112.8006E

 
NDB name  Hdg/Dist  Freq  Var  ID
CREED010/10.625504EBS -... ...

Airport Services

Runway Information

Runway 1/19

Dimensions: 2300 x 60 ft. / 701 x 18 m
Surface: turf
RUNWAY 1  RUNWAY 19
Traffic pattern: leftleft
Displaced threshold: no200 ft.
Obstructions: none25 ft. trees, 50 ft. from runway

Airport Ownership and Management from official FAA records

Ownership: Privately-owned
Owner: BUDDY DRYDEN
4103 WESTBANK DRIVE
AUSTIN, TX 78746
Phone 512-947-4103
Manager: BUDDY DRYDEN
4103 WESTBANK DRIVE
AUSTIN, TX 78746
Phone 512-947-4103

Airport Operational Statistics

Aircraft based on the field: 2
Helicopters: 2
    
Aircraft operations: 4/year
50% local general aviation
50% air taxi

Additional Remarks

FOR CD CTC AUSTIN APCH AT 512-269-7865.

Instrument Procedures

There are no published instrument procedures at TX05.

Some nearby airports with instrument procedures:

KAUS - Austin-Bergstrom International Airport (5 nm SW)
KEDC - Austin Executive Airport (9 nm N)
3R9 - Lakeway Airpark (20 nm W)
T74 - Taylor Municipal Airport (21 nm NE)
KRYW - Lago Vista TX - Rusty Allen Airport (23 nm NW)
 
Loc | Ops | Rwys | IFR | FBO | Links
Com | Nav | Svcs | Stats | Notes
Area around TX05 (Bud Dryden Airport)
 
Road maps at: MapQuest Bing Google
 
Aerial photo
No photo
 
Sectional chart

 
Airport distance calculator
Flying to Bud Dryden Airport? Find the distance to fly.

From to TX05

Sunrise and sunset
Times for 04-Apr-2020
 Local
(UTC-5)
 Zulu
(UTC)
Morning civil twilight06:5211:52
Sunrise07:1612:16
Sunset19:5100:51
Evening civil twilight20:1501:15

Current date and time
Zulu (UTC)  04-Apr-2020 22:34:58
Local (UTC-5)  04-Apr-2020 17:34:58
 
METAR
KAUS 
4nm W 
042153Z 07007KT 8SM -RA SCT009 BKN090 OVC110 10/08 A2997 RMK AO2 SLP149 P0000 T01000083
KATT 
5nm NW 
042151Z AUTO 35004KT 9SM -RA OVC006 09/08 A3000 RMK AO2 PRESRR SLP162 P0002 T00940078 $
KEDC 
9nm N 
042215Z AUTO 05008KT 6SM -RA BKN006 09/08 A2998 RMK AO2
TAF
KAUS 
4nm W 
041723Z 0418/0524 01012KT P6SM SHRA OVC008 FM050100 01006KT P6SM OVC013 FM050800 01005KT 4SM BR OVC007 FM051800 05006KT P6SM BKN018
NOTAMs
Click for the latest NOTAMs
NOTAMs are issued by the DoD/FAA and will open in a separate window not controlled by AirNav.

 

 
 

Would you like to see your business listed on this page?

 If your business provides an interesting product or service to pilots, flight crews, aircraft, or users of the Bud Dryden Airport, you should consider listing it here.  To start the listing process, click on the button below
 
Add a business
 

Other Pages about Bud Dryden Airport

Update a link
 
Copyright © AirNav, LLC. All rights reserved. Privacy Policy  Contact